Douglaston, New York
Current Conditions -  °F | °C
As of 6:51 PM on Saturday 20 Dec 2014 (Local Time) from KLGA Reporting Station
Overcast Overcast  
Wind Chill: 26°   Ceiling: 3200
Heat Index: 33°   Visibility: 10mi
Dew Point: 21°   Wind: 8mph
Humidity: 61%   Direction: 30°NNE
Pressure: 30.29"   Gusts: NA
Location:  40.7726°N, 73.7467°W
Report Text: KLGA 202351Z 03007KT 10SM OVC032 01/M06 A3029 RMK AO2 SLP255 T00061061 10006 20000 52007
Loading
Personal Weather Stations






























Interactive Weather Map New forecast layout! Learn more

10-Day Weather Forecast

Advertisements
Track Severe Weather on mobile